Ada, Michigan
Current Conditions -  °F | °C
As of 5:53 PM on Thursday 27 Nov 2014 (Local Time) from KGRR Reporting Station
Overcast Overcast  
Wind Chill: 12°   Ceiling: 4800
Heat Index: 24°   Visibility: 10mi
Dew Point: 14°   Wind: 14mph
Humidity: 65%   Direction: 320°NW
Pressure: 30.3"   Gusts: NA
Location:  42.95°N, 85.49°W
Report Text: KGRR 272253Z 32012KT 10SM OVC048 M04/M10 A3030 RMK AO2 SLP272 T10441100
Loading
Personal Weather Stations






























Interactive Weather Map New forecast layout! Learn more

10-Day Weather Forecast

Advertisements
Track Severe Weather on mobile